Latest Weather Observations for Woolshed

IDQ60801

Issued at 5:35 pm EST Friday 19 September 2014 (issued every 30 minutes, with the page automatically refreshed every 10 minutes)

About weather observations | Map of weather stations | Latest weather observations for QLD | Other Formats
Station Details ID: 033307 Name: WOOLSHED Lat: -19.42 Lon: 146.54 Height: 556.04 m
Data from the previous 72 hours. | See also: Recent months at Woolshed
Date/Time
EST
Temp
°C
App
Temp
°C
Dew
Point
Rel
Hum
%
Delta-T
°C
Wind Press
QNH
hPa
Press
MSL
hPa
Rain
since 9 am
mm
Dir
 
Spd
km/h
Gust
km/h
Spd
kts
Gust
kts
19/05:30pm 20.4 20.3 15.0 71 3.3 NNE 9 19 5 10 1017.7 1015.2 0.0
19/05:00pm 21.4 21.0 14.1 63 4.3 NNE 9 17 5 9 1017.3 1014.8 0.0
19/04:30pm 22.9 22.1 12.8 53 5.9 NE 9 17 5 9 1017.3 1014.8 0.0
19/04:00pm 23.5 22.4 11.9 48 6.7 NNE 9 17 5 9 1017.3 1014.8 0.0
19/03:30pm 23.0 21.6 10.8 46 6.9 NNE 9 20 5 11 1017.4 1014.9 0.0
19/03:00pm 23.3 21.8 12.0 49 6.6 NNE 11 17 6 9 1017.6 1015.1 0.0
19/02:30pm 23.2 22.4 13.9 56 5.6 N 11 20 6 11 1017.8 1015.3 0.0
19/02:00pm 24.5 24.2 14.3 53 6.2 NNE 9 19 5 10 1018.0 1015.6 0.0
19/01:30pm 25.2 24.5 14.3 50 6.6 NE 11 20 6 11 1018.5 1016.0 0.0
19/01:00pm 24.8 24.5 14.3 52 6.4 NNE 9 19 5 10 1018.8 1016.3 0.0
19/12:30pm 24.3 23.9 14.1 53 6.2 N 9 17 5 9 1019.2 1016.7 0.0
19/12:00pm 24.7 24.4 13.3 49 6.8 NNE 7 13 4 7 1019.8 1017.4 0.0
19/11:30am 23.3 22.9 14.0 56 5.6 N 9 19 5 10 1020.4 1017.9 0.0
19/11:00am 23.4 23.7 14.9 59 5.2 NNE 7 19 4 10 1021.0 1018.5 0.0
19/10:30am 22.0 21.5 14.9 64 4.3 NE 11 22 6 12 1021.4 1019.0 0.0
19/10:00am 22.2 22.5 16.0 68 3.8 NNE 9 22 5 12 1021.5 1019.1 0.0
19/09:30am 20.3 20.2 16.1 77 2.6 NNE 11 22 6 12 1021.6 1019.2 0.0
19/09:00am 20.0 19.9 16.0 78 2.4 NE 11 20 6 11 1021.5 1019.1 0.0
19/08:30am 19.9 20.8 17.5 86 1.5 NNE 9 17 5 9 1021.4 1019.0 0.0
19/08:00am 18.7 19.8 17.0 90 1.1 NE 7 17 4 9 1021.2 1018.8 0.0
19/07:30am 17.8 19.1 17.6 99 0.1 ENE 7 17 4 9 1020.7 1018.2 0.0
19/07:00am 17.3 18.5 17.3 100 0.0 NE 7 13 4 7 1020.2 1017.7 0.0
19/06:30am 17.1 18.4 17.1 100 0.0 NE 6 13 3 7 1019.7 1017.3 0.0
19/06:00am 16.9 18.1 16.9 100 0.0 ENE 6 13 3 7 1019.4 1016.9 0.0
19/05:30am 16.9 18.1 16.9 100 0.0 ENE 6 9 3 5 1019.2 1016.7 0.0
19/05:00am 16.9 18.1 16.9 100 0.0 NE 6 13 3 7 1018.9 1016.4 0.0
19/04:30am 17.0 18.1 17.0 100 0.0 NE 7 13 4 7 1018.6 1016.1 0.0
19/04:00am 17.1 18.2 17.1 100 0.0 NE 7 13 4 7 1018.5 1016.0 0.0
19/03:30am 17.2 18.3 17.2 100 0.0 NE 7 15 4 8 1018.5 1016.0 0.0
19/03:00am 17.1 18.2 17.1 100 0.0 NE 7 15 4 8 1018.5 1016.0 0.0
19/02:30am 17.3 18.4 17.1 99 0.1 NE 7 13 4 7 1018.9 1016.4 0.0
19/02:00am 17.3 18.4 17.0 98 0.2 NE 7 13 4 7 1019.0 1016.5 0.0
19/01:30am 17.7 18.2 17.4 98 0.2 NE 11 19 6 10 1019.3 1016.8 0.0
19/01:00am 17.7 18.8 17.2 97 0.3 NE 7 17 4 9 1019.5 1017.1 0.0
19/12:30am 17.2 18.1 16.6 96 0.4 NE 7 20 4 11 1019.6 1017.2 0.0
19/12:00am 17.3 17.7 16.2 93 0.7 NE 9 15 5 8 1019.7 1017.3 0.0
 
Date/Time
EST
Temp
°C
App
Temp
°C
Dew
Point
Rel
Hum
%
Delta-T
°C
Wind Press
QNH
hPa
Press
MSL
hPa
Rain
since 9 am
mm
Dir
 
Spd
km/h
Gust
km/h
Spd
kts
Gust
kts
18/11:30pm 17.2 17.9 16.1 93 0.7 NE 7 13 4 7 1019.8 1017.4 0.0
18/11:00pm 17.3 18.0 16.0 92 0.8 NE 7 11 4 6 1019.9 1017.5 0.0
18/10:30pm 16.4 16.1 12.6 78 2.2 NE 6 9 3 5 1019.8 1017.4 0.0
18/10:00pm 17.1 16.8 12.8 76 2.5 ENE 6 9 3 5 1019.8 1017.4 0.0
18/09:30pm 17.7 17.5 13.0 74 2.7 NE 6 11 3 6 1019.6 1017.2 0.0
18/09:00pm 16.4 15.9 10.7 69 3.1 NE 4 7 2 4 1019.4 1016.9 0.0
18/08:30pm 15.2 15.9 12.2 82 1.7 CALM 0 2 0 1 1019.0 1016.5 0.0
18/08:00pm 16.3 17.4 13.6 84 1.6 CALM 0 0 0 0 1018.8 1016.3 0.0
18/07:30pm 17.9 19.1 15.0 83 1.7 ENE 2 4 1 2 1018.5 1016.0 0.0
18/07:00pm 18.9 19.6 14.6 76 2.6 NE 4 7 2 4 1018.0 1015.6 0.0
18/06:30pm 19.7 19.2 12.0 61 4.4 NNE 6 9 3 5 1017.8 1015.3 0.0
18/06:00pm 20.6 19.2 8.9 47 6.3 NNE 6 11 3 6 1017.5 1015.0 0.0
18/05:30pm 22.2 20.3 7.6 39 7.8 NNE 7 15 4 8 1017.3 1014.8 0.0
18/05:00pm 23.6 21.4 7.7 36 8.6 NNE 9 19 5 10 1017.0 1014.5 0.0
18/04:30pm 24.9 22.1 7.1 32 9.6 NNE 11 19 6 10 1016.8 1014.3 0.0
18/04:00pm 25.8 22.9 6.4 29 10.3 NNE 11 19 6 10 1016.6 1014.1 0.0
18/03:30pm 26.6 23.8 7.1 29 10.6 NNE 11 20 6 11 1016.6 1014.1 0.0
18/03:00pm 27.2 24.2 6.0 26 11.3 N 11 20 6 11 1016.7 1014.2 0.0
18/02:30pm 29.2 25.9 -0.1 15 14.3 SSE 7 19 4 10 1017.0 1014.5 0.0
18/02:00pm 29.6 26.2 -0.7 14 14.6 S 7 13 4 7 1017.4 1014.9 0.0
18/01:30pm 28.5 25.1 -0.6 15 14.0 SE 7 19 4 10 1017.7 1015.2 0.0
18/01:00pm 29.2 26.0 0.8 16 14.0 S 7 19 4 10 1018.5 1016.0 0.0
18/12:30pm 28.8 25.6 0.5 16 13.9 SSE 7 17 4 9 1018.8 1016.3 0.0
18/12:00pm 28.2 25.3 1.7 18 13.2 S 6 15 3 8 1019.3 1016.8 0.0
18/11:30am 27.9 25.1 2.2 19 12.9 SE 6 13 3 7 1019.7 1017.3 0.0
18/11:00am 27.4 24.6 1.8 19 12.7 SE 6 13 3 7 1020.3 1017.8 0.0
18/10:30am 27.1 24.7 4.2 23 11.9 SW 6 13 3 7 1020.5 1018.0 0.0
18/10:00am 26.3 23.9 4.1 24 11.4 WSW 6 13 3 7 1020.8 1018.3 0.0
18/09:30am 25.0 22.6 4.2 26 10.6 WSW 6 9 3 5 1021.1 1018.6 0.0
18/09:00am 24.0 21.4 3.3 26 10.3 WSW 6 7 3 4 1021.0 1018.5 0.0
18/08:30am 23.1 21.2 5.1 31 9.2 SW 4 7 2 4 1021.1 1018.6 0.0
18/08:00am 20.4 19.4 7.4 43 6.8 SW 2 4 1 2 1021.0 1018.5 0.0
18/07:30am 15.6 15.6 9.9 69 3.1 CALM 0 0 0 0 1020.7 1018.2 0.0
18/07:00am 11.0 10.5 7.9 81 1.5 CALM 0 0 0 0 1020.2 1017.7 0.0
18/06:30am 8.6 7.5 5.2 79 1.6 CALM 0 0 0 0 1019.8 1017.4 0.0
18/06:00am 9.9 8.8 5.3 73 2.2 CALM 0 0 0 0 1019.5 1017.1 0.0
18/05:30am 9.9 8.9 5.5 74 2.1 CALM 0 0 0 0 1019.3 1016.8 0.0
18/05:00am 10.4 9.4 5.6 72 2.3 CALM 0 0 0 0 1019.1 1016.6 0.0
18/04:30am 11.2 10.2 5.7 69 2.6 CALM 0 0 0 0 1018.8 1016.3 0.0
18/04:00am 10.9 10.1 6.3 73 2.2 CALM 0 2 0 1 1018.8 1016.3 0.0
18/03:30am 10.4 9.0 5.6 72 2.3 SW 2 4 1 2 1018.6 1016.1 0.0
18/03:00am 13.6 12.5 5.3 57 4.0 CALM 0 0 0 0 1018.6 1016.1 0.0
18/02:30am 11.7 10.6 5.1 64 3.1 CALM 0 0 0 0 1018.9 1016.4 0.0
18/02:00am 13.4 12.3 5.1 57 4.0 CALM 0 4 0 2 1019.2 1016.7 0.0
18/01:30am 14.2 13.2 5.8 57 4.1 CALM 0 0 0 0 1019.4 1016.9 0.0
18/01:00am 16.7 14.7 4.4 44 5.9 NNE 4 6 2 3 1019.2 1016.7 0.0
18/12:30am 16.8 14.5 4.8 45 5.9 NNE 6 9 3 5 1019.3 1016.8 0.0
18/12:00am 18.0 16.0 4.2 40 6.7 NE 4 7 2 4 1019.5 1017.1 0.0
 
Date/Time
EST
Temp
°C
App
Temp
°C
Dew
Point
Rel
Hum
%
Delta-T
°C
Wind Press
QNH
hPa
Press
MSL
hPa
Rain
since 9 am
mm
Dir
 
Spd
km/h
Gust
km/h
Spd
kts
Gust
kts
17/11:30pm 17.7 15.5 3.6 39 6.8 NE 4 7 2 4 1019.5 1017.1 0.0
17/11:00pm 18.0 15.8 3.5 38 7.0 NE 4 7 2 4 1019.3 1016.8 0.0
17/10:30pm 17.4 15.2 3.3 39 6.7 NNE 4 9 2 5 1019.2 1016.7 0.0
17/10:00pm 18.3 15.7 3.4 37 7.1 NNE 6 11 3 6 1019.2 1016.7 0.0
17/09:30pm 18.2 15.4 2.1 34 7.5 NE 6 7 3 4 1019.2 1016.7 0.0
17/09:00pm 17.9 15.2 2.6 36 7.2 NE 6 7 3 4 1019.1 1016.6 0.0
17/08:30pm 19.0 16.3 2.4 33 7.9 NE 6 7 3 4 1019.0 1016.5 0.0
17/08:00pm 18.9 16.5 2.3 33 7.8 NNE 4 9 2 5 1018.6 1016.1 0.0
17/07:30pm 19.3 17.0 5.7 41 6.9 NE 7 13 4 7 1018.4 1015.9 0.0
17/07:00pm 19.1 17.2 6.9 45 6.3 NNE 6 13 3 7 1017.9 1015.5 0.0
17/06:30pm 20.4 18.5 7.7 44 6.7 NNE 7 15 4 8 1017.7 1015.2 0.0
17/06:00pm 21.1 19.2 7.7 42 7.1 NNE 7 15 4 8 1017.3 1014.8 0.0
17/05:30pm 22.4 20.6 8.1 40 7.7 N 7 19 4 10 1017.1 1014.6 0.0
17/05:00pm 23.5 21.5 8.8 39 8.1 NNE 9 17 5 9 1016.9 1014.4 0.0
17/04:30pm 24.3 22.3 10.2 41 8.0 NNE 11 17 6 9 1016.7 1014.2 0.0
17/04:00pm 24.9 22.4 9.6 38 8.6 NNE 13 20 7 11 1016.5 1014.0 0.0
17/03:30pm 25.7 23.5 9.5 36 9.1 NNE 11 20 6 11 1016.5 1014.0 0.0
17/03:00pm 26.7 24.9 10.8 37 9.2 N 11 22 6 12 1016.5 1014.0 0.0
17/02:30pm 26.9 25.0 10.6 36 9.4 N 11 19 6 10 1016.8 1014.3 0.0
17/02:00pm 27.1 25.1 8.5 31 10.4 N 9 17 5 9 1016.9 1014.4 0.0
17/01:30pm 27.7 24.8 4.7 23 12.1 NNE 9 17 5 9 1017.3 1014.8 0.0
17/01:00pm 28.0 24.3 4.3 22 12.3 NE 13 22 7 12 1017.7 1015.2 0.0
17/12:30pm 27.2 24.4 3.0 21 12.3 NNE 7 17 4 9 1018.3 1015.8 0.0
17/12:00pm 27.1 25.3 8.0 30 10.5 SE 7 13 4 7 1018.7 1016.2 0.0
17/11:30am 26.4 25.5 9.3 34 9.6 NNE 4 9 2 5 1019.1 1016.6 0.0
17/11:00am 24.9 23.2 7.5 33 9.4 NNE 6 9 3 5 1019.6 1017.2 0.0
17/10:30am 24.6 23.5 10.1 40 8.2 N 6 13 3 7 1019.9 1017.5 0.0
17/10:00am 23.7 23.1 10.4 43 7.5 N 4 9 2 5 1020.1 1017.6 0.0
17/09:30am 22.3 21.8 10.8 48 6.5 N 4 9 2 5 1019.8 1017.4 0.0
17/09:00am 21.0 20.5 11.9 56 5.2 N 6 9 3 5 1019.7 1017.3 0.0
17/08:30am 20.6 21.2 14.3 67 3.8 N 4 7 2 4 1019.5 1017.1 0.0
17/08:00am 18.8 19.6 15.9 83 1.8 N 6 9 3 5 1019.4 1016.9 0.0
17/07:30am 17.7 18.6 16.7 94 0.6 NNE 7 13 4 7 1019.1 1016.6 0.0
17/07:00am 16.5 17.6 16.5 100 0.0 NNE 6 13 3 7 1018.8 1016.3 0.0
17/06:30am 15.6 16.3 15.6 100 0.0 NNE 6 9 3 5 1018.4 1015.9 0.0
17/06:00am 15.6 16.3 15.6 100 0.0 NE 6 13 3 7 1018.0 1015.6 0.0
17/05:30am 16.0 16.7 16.0 100 0.0 NE 7 13 4 7 1017.7 1015.2 0.0
17/05:00am 16.3 17.1 16.3 100 0.0 NE 7 13 4 7 1017.5 1015.0 0.0
17/04:30am 16.3 16.7 16.3 100 0.0 NNE 9 13 5 7 1017.2 1014.7 0.0
17/04:00am 16.4 17.2 16.4 100 0.0 NE 7 13 4 7 1017.1 1014.6 0.0
17/03:30am 16.3 17.1 16.3 100 0.0 NE 7 11 4 6 1017.3 1014.8 0.0
17/03:00am 16.6 17.5 16.6 100 0.0 NE 7 13 4 7 1017.4 1014.9 0.0
17/02:30am 16.7 17.8 16.7 100 0.0 NNE 6 11 3 6 1017.6 1015.1 0.0
17/02:00am 16.8 17.8 16.8 100 0.0 NE 7 11 4 6 1017.8 1015.3 0.0
17/01:30am 16.8 17.8 16.8 100 0.0 NNE 7 13 4 7 1018.3 1015.8 0.0
17/01:00am 16.9 18.1 16.9 100 0.0 NNE 6 11 3 6 1018.4 1015.9 0.0
17/12:30am 17.1 18.2 17.1 100 0.0 NNE 7 17 4 9 1018.6 1016.1 0.0
17/12:00am 17.1 18.2 17.1 100 0.0 NNE 7 11 4 6 1018.8 1016.3 0.0
 
Date/Time
EST
Temp
°C
App
Temp
°C
Dew
Point
Rel
Hum
%
Delta-T
°C
Wind Press
QNH
hPa
Press
MSL
hPa
Rain
since 9 am
mm
Dir
 
Spd
km/h
Gust
km/h
Spd
kts
Gust
kts
16/11:30pm 17.2 18.3 17.0 99 0.1 NNE 7 15 4 8 1019.0 1016.5 0.0
16/11:00pm 17.4 18.5 17.2 99 0.1 NNE 7 13 4 7 1019.0 1016.5 0.0
16/10:30pm 17.4 18.2 17.4 100 0.0 NE 9 15 5 8 1018.8 1016.3 0.0
16/10:00pm 17.5 18.8 17.5 100 0.0 NNE 7 15 4 8 1018.7 1016.2 0.0
16/09:30pm 17.6 18.5 17.6 100 0.0 NE 9 19 5 10 1019.0 1016.5 0.0
16/09:00pm 17.8 19.1 17.6 99 0.1 NE 7 17 4 9 1018.6 1016.1 0.0
16/08:30pm 17.8 18.8 17.8 100 0.0 NE 9 17 5 9 1018.4 1015.9 0.0
16/08:00pm 17.9 19.3 17.7 99 0.1 NE 7 17 4 9 1018.0 1015.6 0.0
16/07:30pm 18.0 19.0 17.7 98 0.2 NE 9 19 5 10 1017.7 1015.2 0.0
16/07:00pm 17.6 18.1 16.6 94 0.6 NNE 9 15 5 8 1017.3 1014.8 0.0
16/06:30pm 18.1 18.3 15.7 86 1.5 NNE 9 17 5 9 1016.8 1014.3 0.0
16/06:00pm 19.0 19.1 14.5 75 2.7 NNE 7 15 4 8 1016.5 1014.0 0.0

Other Formats:

Comma delimited format used in spreadsheet applications
http://www.bom.gov.au/fwo/IDQ60801/IDQ60801.95293.axf

JavaScript Object Notation format (JSON) in row-major order
http://www.bom.gov.au/fwo/IDQ60801/IDQ60801.95293.json